sensor_id;sensor_type;location;lat;lon;timestamp;P1;durP1;ratioP1;P2;durP2;ratioP2
75993;SDS011;64680;53.800;9.988;2023-12-04T00:00:33;32.47;;;11.68;;
75993;SDS011;64680;53.800;9.988;2023-12-04T00:02:59;32.40;;;11.35;;
75993;SDS011;64680;53.800;9.988;2023-12-04T00:05:24;31.92;;;12.30;;
75993;SDS011;64680;53.800;9.988;2023-12-04T00:07:50;35.33;;;12.05;;
75993;SDS011;64680;53.800;9.988;2023-12-04T00:10:15;29.48;;;11.93;;
75993;SDS011;64680;53.800;9.988;2023-12-04T00:12:41;26.27;;;10.50;;
75993;SDS011;64680;53.800;9.988;2023-12-04T00:15:07;32.08;;;11.40;;
75993;SDS011;64680;53.800;9.988;2023-12-04T00:17:33;31.75;;;12.95;;
75993;SDS011;64680;53.800;9.988;2023-12-04T00:19:58;30.23;;;10.45;;
75993;SDS011;64680;53.800;9.988;2023-12-04T00:22:24;33.58;;;12.95;;
75993;SDS011;64680;53.800;9.988;2023-12-04T00:24:49;31.92;;;10.15;;
75993;SDS011;64680;53.800;9.988;2023-12-04T00:27:15;25.35;;;9.43;;
75993;SDS011;64680;53.800;9.988;2023-12-04T00:29:41;29.85;;;10.95;;
75993;SDS011;64680;53.800;9.988;2023-12-04T00:32:06;31.58;;;11.27;;
75993;SDS011;64680;53.800;9.988;2023-12-04T00:34:32;32.78;;;11.77;;
75993;SDS011;64680;53.800;9.988;2023-12-04T00:36:57;28.83;;;10.48;;
75993;SDS011;64680;53.800;9.988;2023-12-04T00:39:23;32.50;;;11.50;;
75993;SDS011;64680;53.800;9.988;2023-12-04T00:41:48;30.40;;;10.70;;
75993;SDS011;64680;53.800;9.988;2023-12-04T00:44:14;28.67;;;11.68;;
75993;SDS011;64680;53.800;9.988;2023-12-04T00:46:40;28.38;;;10.65;;
75993;SDS011;64680;53.800;9.988;2023-12-04T00:49:05;26.67;;;10.45;;
75993;SDS011;64680;53.800;9.988;2023-12-04T00:51:36;28.73;;;10.60;;
75993;SDS011;64680;53.800;9.988;2023-12-04T00:54:03;27.30;;;11.88;;
75993;SDS011;64680;53.800;9.988;2023-12-04T00:56:29;27.73;;;10.02;;
75993;SDS011;64680;53.800;9.988;2023-12-04T00:58:54;25.55;;;10.25;;
75993;SDS011;64680;53.800;9.988;2023-12-04T01:01:20;28.30;;;10.45;;
75993;SDS011;64680;53.800;9.988;2023-12-04T01:03:45;28.77;;;10.45;;
75993;SDS011;64680;53.800;9.988;2023-12-04T01:06:19;26.48;;;10.82;;
75993;SDS011;64680;53.800;9.988;2023-12-04T01:08:47;27.83;;;10.32;;
75993;SDS011;64680;53.800;9.988;2023-12-04T01:11:13;27.90;;;12.05;;
75993;SDS011;64680;53.800;9.988;2023-12-04T01:13:40;30.42;;;10.77;;
75993;SDS011;64680;53.800;9.988;2023-12-04T01:16:05;31.92;;;10.50;;
75993;SDS011;64680;53.800;9.988;2023-12-04T01:18:31;26.60;;;11.25;;
75993;SDS011;64680;53.800;9.988;2023-12-04T01:20:57;29.98;;;10.52;;
75993;SDS011;64680;53.800;9.988;2023-12-04T01:23:23;24.73;;;8.93;;
75993;SDS011;64680;53.800;9.988;2023-12-04T01:25:48;27.33;;;11.55;;
75993;SDS011;64680;53.800;9.988;2023-12-04T01:28:14;25.58;;;9.82;;
75993;SDS011;64680;53.800;9.988;2023-12-04T01:30:39;26.67;;;10.38;;
75993;SDS011;64680;53.800;9.988;2023-12-04T01:33:05;28.13;;;10.98;;
75993;SDS011;64680;53.800;9.988;2023-12-04T01:35:30;26.13;;;10.55;;
75993;SDS011;64680;53.800;9.988;2023-12-04T01:37:56;25.55;;;10.45;;
75993;SDS011;64680;53.800;9.988;2023-12-04T01:40:22;29.98;;;10.73;;
75993;SDS011;64680;53.800;9.988;2023-12-04T01:42:47;25.15;;;10.63;;
75993;SDS011;64680;53.800;9.988;2023-12-04T01:45:13;23.08;;;9.70;;
75993;SDS011;64680;53.800;9.988;2023-12-04T01:47:38;26.73;;;10.65;;
75993;SDS011;64680;53.800;9.988;2023-12-04T01:50:05;26.77;;;10.70;;
75993;SDS011;64680;53.800;9.988;2023-12-04T01:52:31;26.65;;;9.93;;
75993;SDS011;64680;53.800;9.988;2023-12-04T01:54:57;22.33;;;9.27;;
75993;SDS011;64680;53.800;9.988;2023-12-04T01:57:23;25.10;;;10.48;;
75993;SDS011;64680;53.800;9.988;2023-12-04T01:59:49;28.30;;;10.90;;
75993;SDS011;64680;53.800;9.988;2023-12-04T02:02:14;24.75;;;10.45;;
75993;SDS011;64680;53.800;9.988;2023-12-04T02:04:40;26.60;;;9.85;;
75993;SDS011;64680;53.800;9.988;2023-12-04T02:07:06;23.92;;;10.00;;
75993;SDS011;64680;53.800;9.988;2023-12-04T02:09:34;28.92;;;10.30;;
75993;SDS011;64680;53.800;9.988;2023-12-04T02:11:59;25.17;;;8.98;;
75993;SDS011;64680;53.800;9.988;2023-12-04T02:14:25;26.52;;;10.05;;
75993;SDS011;64680;53.800;9.988;2023-12-04T02:16:51;26.13;;;11.10;;
75993;SDS011;64680;53.800;9.988;2023-12-04T02:19:19;23.15;;;9.68;;
75993;SDS011;64680;53.800;9.988;2023-12-04T02:21:45;30.98;;;11.07;;
75993;SDS011;64680;53.800;9.988;2023-12-04T02:24:11;23.33;;;9.75;;
75993;SDS011;64680;53.800;9.988;2023-12-04T02:26:39;24.33;;;9.85;;
75993;SDS011;64680;53.800;9.988;2023-12-04T02:29:14;29.80;;;10.50;;
75993;SDS011;64680;53.800;9.988;2023-12-04T02:31:46;28.17;;;11.13;;
75993;SDS011;64680;53.800;9.988;2023-12-04T02:34:15;26.92;;;10.18;;
75993;SDS011;64680;53.800;9.988;2023-12-04T02:36:41;26.45;;;10.30;;
75993;SDS011;64680;53.800;9.988;2023-12-04T02:39:08;26.10;;;10.82;;
75993;SDS011;64680;53.800;9.988;2023-12-04T02:41:34;24.75;;;10.20;;
75993;SDS011;64680;53.800;9.988;2023-12-04T02:44:00;24.30;;;10.25;;
75993;SDS011;64680;53.800;9.988;2023-12-04T02:46:25;29.58;;;10.98;;
75993;SDS011;64680;53.800;9.988;2023-12-04T02:48:51;27.15;;;10.55;;
75993;SDS011;64680;53.800;9.988;2023-12-04T02:51:16;30.23;;;12.07;;
75993;SDS011;64680;53.800;9.988;2023-12-04T02:53:42;26.08;;;10.93;;
75993;SDS011;64680;53.800;9.988;2023-12-04T02:56:07;28.58;;;11.13;;
75993;SDS011;64680;53.800;9.988;2023-12-04T02:58:34;28.25;;;10.00;;
75993;SDS011;64680;53.800;9.988;2023-12-04T03:00:59;30.15;;;12.60;;
75993;SDS011;64680;53.800;9.988;2023-12-04T03:03:25;26.88;;;10.57;;
75993;SDS011;64680;53.800;9.988;2023-12-04T03:05:50;28.85;;;9.88;;
75993;SDS011;64680;53.800;9.988;2023-12-04T03:08:16;26.92;;;10.52;;
75993;SDS011;64680;53.800;9.988;2023-12-04T03:10:41;27.92;;;10.77;;
75993;SDS011;64680;53.800;9.988;2023-12-04T03:13:07;31.48;;;11.18;;
75993;SDS011;64680;53.800;9.988;2023-12-04T03:15:33;28.58;;;10.48;;
75993;SDS011;64680;53.800;9.988;2023-12-04T03:17:59;29.65;;;12.32;;
75993;SDS011;64680;53.800;9.988;2023-12-04T03:20:26;27.33;;;10.25;;
75993;SDS011;64680;53.800;9.988;2023-12-04T03:22:51;29.25;;;11.15;;
75993;SDS011;64680;53.800;9.988;2023-12-04T03:25:17;28.90;;;10.80;;
75993;SDS011;64680;53.800;9.988;2023-12-04T03:27:42;28.08;;;9.73;;
75993;SDS011;64680;53.800;9.988;2023-12-04T03:30:08;27.58;;;10.63;;
75993;SDS011;64680;53.800;9.988;2023-12-04T03:32:34;29.33;;;10.73;;
75993;SDS011;64680;53.800;9.988;2023-12-04T03:34:59;30.85;;;11.77;;
75993;SDS011;64680;53.800;9.988;2023-12-04T03:37:26;29.75;;;9.48;;
75993;SDS011;64680;53.800;9.988;2023-12-04T03:39:51;27.73;;;10.30;;
75993;SDS011;64680;53.800;9.988;2023-12-04T03:42:18;26.30;;;10.80;;
75993;SDS011;64680;53.800;9.988;2023-12-04T03:44:43;25.42;;;9.93;;
75993;SDS011;64680;53.800;9.988;2023-12-04T03:47:09;27.20;;;11.18;;
75993;SDS011;64680;53.800;9.988;2023-12-04T03:49:34;24.50;;;9.63;;
75993;SDS011;64680;53.800;9.988;2023-12-04T03:52:00;30.38;;;11.60;;
75993;SDS011;64680;53.800;9.988;2023-12-04T03:54:26;29.73;;;10.73;;
75993;SDS011;64680;53.800;9.988;2023-12-04T03:56:53;29.27;;;10.70;;
75993;SDS011;64680;53.800;9.988;2023-12-04T03:59:19;27.58;;;11.65;;
75993;SDS011;64680;53.800;9.988;2023-12-04T04:01:45;23.85;;;10.32;;
75993;SDS011;64680;53.800;9.988;2023-12-04T04:04:10;24.60;;;8.73;;
75993;SDS011;64680;53.800;9.988;2023-12-04T04:06:36;28.27;;;9.30;;
75993;SDS011;64680;53.800;9.988;2023-12-04T04:09:03;25.13;;;10.10;;
75993;SDS011;64680;53.800;9.988;2023-12-04T04:11:29;27.13;;;10.07;;
75993;SDS011;64680;53.800;9.988;2023-12-04T04:13:55;27.20;;;10.25;;
75993;SDS011;64680;53.800;9.988;2023-12-04T04:16:21;29.90;;;10.52;;
75993;SDS011;64680;53.800;9.988;2023-12-04T04:18:46;26.25;;;9.90;;
75993;SDS011;64680;53.800;9.988;2023-12-04T04:21:12;24.05;;;9.88;;
75993;SDS011;64680;53.800;9.988;2023-12-04T04:23:37;24.17;;;10.73;;
75993;SDS011;64680;53.800;9.988;2023-12-04T04:26:03;26.63;;;9.52;;
75993;SDS011;64680;53.800;9.988;2023-12-04T04:28:30;22.75;;;8.60;;
75993;SDS011;64680;53.800;9.988;2023-12-04T04:30:55;24.42;;;10.55;;
75993;SDS011;64680;53.800;9.988;2023-12-04T04:33:21;23.67;;;9.23;;
75993;SDS011;64680;53.800;9.988;2023-12-04T04:35:46;22.17;;;8.80;;
75993;SDS011;64680;53.800;9.988;2023-12-04T04:38:12;26.50;;;10.52;;
75993;SDS011;64680;53.800;9.988;2023-12-04T04:40:38;25.77;;;9.80;;
75993;SDS011;64680;53.800;9.988;2023-12-04T04:45:33;20.55;;;7.90;;
75993;SDS011;64680;53.800;9.988;2023-12-04T04:47:59;21.55;;;8.55;;
75993;SDS011;64680;53.800;9.988;2023-12-04T04:50:24;19.48;;;7.85;;
75993;SDS011;64680;53.800;9.988;2023-12-04T04:52:50;21.42;;;7.70;;
75993;SDS011;64680;53.800;9.988;2023-12-04T04:55:15;22.80;;;8.90;;
75993;SDS011;64680;53.800;9.988;2023-12-04T04:57:41;19.10;;;8.38;;
75993;SDS011;64680;53.800;9.988;2023-12-04T05:00:06;24.10;;;8.90;;
75993;SDS011;64680;53.800;9.988;2023-12-04T05:02:32;25.15;;;9.23;;
75993;SDS011;64680;53.800;9.988;2023-12-04T05:05:00;28.50;;;9.27;;
75993;SDS011;64680;53.800;9.988;2023-12-04T05:07:27;22.38;;;8.73;;
75993;SDS011;64680;53.800;9.988;2023-12-04T05:09:53;23.75;;;8.95;;
75993;SDS011;64680;53.800;9.988;2023-12-04T05:12:19;23.38;;;8.90;;
75993;SDS011;64680;53.800;9.988;2023-12-04T05:14:44;21.95;;;8.85;;
75993;SDS011;64680;53.800;9.988;2023-12-04T05:17:10;27.85;;;10.00;;
75993;SDS011;64680;53.800;9.988;2023-12-04T05:19:35;19.73;;;8.43;;
75993;SDS011;64680;53.800;9.988;2023-12-04T05:22:01;23.55;;;9.57;;
75993;SDS011;64680;53.800;9.988;2023-12-04T05:24:27;23.38;;;8.38;;
75993;SDS011;64680;53.800;9.988;2023-12-04T05:26:52;23.73;;;8.68;;
75993;SDS011;64680;53.800;9.988;2023-12-04T05:29:18;22.05;;;8.23;;
75993;SDS011;64680;53.800;9.988;2023-12-04T05:31:44;21.23;;;7.97;;
75993;SDS011;64680;53.800;9.988;2023-12-04T05:34:09;20.50;;;8.95;;
75993;SDS011;64680;53.800;9.988;2023-12-04T05:36:35;25.63;;;9.20;;
75993;SDS011;64680;53.800;9.988;2023-12-04T05:39:00;19.77;;;8.63;;
75993;SDS011;64680;53.800;9.988;2023-12-04T05:41:26;20.60;;;7.82;;
75993;SDS011;64680;53.800;9.988;2023-12-04T05:43:52;21.65;;;8.93;;
75993;SDS011;64680;53.800;9.988;2023-12-04T05:46:18;21.38;;;8.02;;
75993;SDS011;64680;53.800;9.988;2023-12-04T05:48:44;24.98;;;8.57;;
75993;SDS011;64680;53.800;9.988;2023-12-04T05:51:10;21.95;;;7.82;;
75993;SDS011;64680;53.800;9.988;2023-12-04T05:53:36;20.92;;;8.93;;
75993;SDS011;64680;53.800;9.988;2023-12-04T05:56:02;19.25;;;7.93;;
75993;SDS011;64680;53.800;9.988;2023-12-04T05:58:29;21.35;;;8.73;;
75993;SDS011;64680;53.800;9.988;2023-12-04T06:00:55;25.17;;;9.38;;
75993;SDS011;64680;53.800;9.988;2023-12-04T06:03:20;22.23;;;8.48;;
75993;SDS011;64680;53.800;9.988;2023-12-04T06:05:46;22.20;;;7.97;;
75993;SDS011;64680;53.800;9.988;2023-12-04T06:08:12;21.23;;;8.07;;
75993;SDS011;64680;53.800;9.988;2023-12-04T06:10:37;22.25;;;8.65;;
75993;SDS011;64680;53.800;9.988;2023-12-04T06:13:03;21.50;;;8.52;;
75993;SDS011;64680;53.800;9.988;2023-12-04T06:15:29;24.15;;;8.75;;
75993;SDS011;64680;53.800;9.988;2023-12-04T06:17:54;22.02;;;8.50;;
75993;SDS011;64680;53.800;9.988;2023-12-04T06:20:20;19.95;;;9.18;;
75993;SDS011;64680;53.800;9.988;2023-12-04T06:22:45;18.98;;;7.72;;
75993;SDS011;64680;53.800;9.988;2023-12-04T06:25:11;23.58;;;8.73;;
75993;SDS011;64680;53.800;9.988;2023-12-04T06:27:37;23.90;;;9.35;;
75993;SDS011;64680;53.800;9.988;2023-12-04T06:30:04;21.63;;;7.95;;
75993;SDS011;64680;53.800;9.988;2023-12-04T06:32:31;23.60;;;9.40;;
75993;SDS011;64680;53.800;9.988;2023-12-04T06:34:57;21.50;;;9.15;;
75993;SDS011;64680;53.800;9.988;2023-12-04T06:37:23;20.73;;;8.10;;
75993;SDS011;64680;53.800;9.988;2023-12-04T06:39:49;25.40;;;9.05;;
75993;SDS011;64680;53.800;9.988;2023-12-04T06:42:17;21.80;;;8.23;;
75993;SDS011;64680;53.800;9.988;2023-12-04T06:44:44;25.08;;;8.65;;
75993;SDS011;64680;53.800;9.988;2023-12-04T06:47:10;21.83;;;9.13;;
75993;SDS011;64680;53.800;9.988;2023-12-04T06:49:37;20.90;;;7.50;;
75993;SDS011;64680;53.800;9.988;2023-12-04T06:52:03;21.33;;;8.82;;
75993;SDS011;64680;53.800;9.988;2023-12-04T06:54:29;25.35;;;9.30;;
75993;SDS011;64680;53.800;9.988;2023-12-04T06:56:55;23.13;;;9.00;;
75993;SDS011;64680;53.800;9.988;2023-12-04T06:59:21;25.80;;;9.55;;
75993;SDS011;64680;53.800;9.988;2023-12-04T07:01:46;22.42;;;8.75;;
75993;SDS011;64680;53.800;9.988;2023-12-04T07:04:12;25.83;;;9.68;;
75993;SDS011;64680;53.800;9.988;2023-12-04T07:06:39;24.13;;;9.95;;
75993;SDS011;64680;53.800;9.988;2023-12-04T07:09:05;25.98;;;10.15;;
75993;SDS011;64680;53.800;9.988;2023-12-04T07:11:34;27.98;;;10.60;;
75993;SDS011;64680;53.800;9.988;2023-12-04T07:13:59;22.90;;;8.55;;
75993;SDS011;64680;53.800;9.988;2023-12-04T07:16:25;26.52;;;10.55;;
75993;SDS011;64680;53.800;9.988;2023-12-04T07:18:51;22.73;;;8.93;;
75993;SDS011;64680;53.800;9.988;2023-12-04T07:21:16;25.00;;;10.77;;
75993;SDS011;64680;53.800;9.988;2023-12-04T07:23:42;27.40;;;10.52;;
75993;SDS011;64680;53.800;9.988;2023-12-04T07:26:07;27.42;;;10.07;;
75993;SDS011;64680;53.800;9.988;2023-12-04T07:28:33;25.95;;;8.95;;
75993;SDS011;64680;53.800;9.988;2023-12-04T07:30:59;21.83;;;9.60;;
75993;SDS011;64680;53.800;9.988;2023-12-04T07:33:26;28.70;;;10.15;;
75993;SDS011;64680;53.800;9.988;2023-12-04T07:35:52;28.80;;;9.75;;
75993;SDS011;64680;53.800;9.988;2023-12-04T07:38:18;25.77;;;9.43;;
75993;SDS011;64680;53.800;9.988;2023-12-04T07:40:44;24.40;;;9.48;;
75993;SDS011;64680;53.800;9.988;2023-12-04T07:43:11;26.02;;;9.85;;
75993;SDS011;64680;53.800;9.988;2023-12-04T07:45:39;27.20;;;9.50;;
75993;SDS011;64680;53.800;9.988;2023-12-04T07:48:05;24.08;;;9.20;;
75993;SDS011;64680;53.800;9.988;2023-12-04T07:50:31;25.77;;;9.65;;
75993;SDS011;64680;53.800;9.988;2023-12-04T07:52:56;30.92;;;10.52;;
75993;SDS011;64680;53.800;9.988;2023-12-04T07:55:22;31.27;;;10.23;;
75993;SDS011;64680;53.800;9.988;2023-12-04T07:57:48;25.10;;;9.88;;
75993;SDS011;64680;53.800;9.988;2023-12-04T08:00:15;23.20;;;8.82;;
75993;SDS011;64680;53.800;9.988;2023-12-04T08:02:42;27.63;;;9.15;;
75993;SDS011;64680;53.800;9.988;2023-12-04T08:05:09;23.50;;;9.18;;
75993;SDS011;64680;53.800;9.988;2023-12-04T08:07:35;21.85;;;9.45;;
75993;SDS011;64680;53.800;9.988;2023-12-04T08:10:01;26.08;;;10.25;;
75993;SDS011;64680;53.800;9.988;2023-12-04T08:12:27;22.25;;;9.05;;
75993;SDS011;64680;53.800;9.988;2023-12-04T08:14:52;27.15;;;9.30;;
75993;SDS011;64680;53.800;9.988;2023-12-04T08:17:18;21.35;;;9.60;;
75993;SDS011;64680;53.800;9.988;2023-12-04T08:19:44;28.23;;;10.35;;
75993;SDS011;64680;53.800;9.988;2023-12-04T08:22:12;28.25;;;9.85;;
75993;SDS011;64680;53.800;9.988;2023-12-04T08:24:37;25.73;;;10.32;;
75993;SDS011;64680;53.800;9.988;2023-12-04T08:27:03;30.40;;;10.38;;
75993;SDS011;64680;53.800;9.988;2023-12-04T08:29:29;28.00;;;10.02;;
75993;SDS011;64680;53.800;9.988;2023-12-04T08:31:55;27.95;;;9.82;;
75993;SDS011;64680;53.800;9.988;2023-12-04T08:34:20;26.08;;;10.75;;
75993;SDS011;64680;53.800;9.988;2023-12-04T08:36:46;25.80;;;9.75;;
75993;SDS011;64680;53.800;9.988;2023-12-04T08:39:11;25.85;;;9.20;;
75993;SDS011;64680;53.800;9.988;2023-12-04T08:41:37;21.77;;;8.48;;
75993;SDS011;64680;53.800;9.988;2023-12-04T08:44:03;24.05;;;9.02;;
75993;SDS011;64680;53.800;9.988;2023-12-04T08:46:29;25.48;;;9.95;;
75993;SDS011;64680;53.800;9.988;2023-12-04T08:48:54;26.08;;;9.75;;
75993;SDS011;64680;53.800;9.988;2023-12-04T08:51:21;25.73;;;9.23;;
75993;SDS011;64680;53.800;9.988;2023-12-04T08:53:46;22.25;;;8.88;;
75993;SDS011;64680;53.800;9.988;2023-12-04T08:56:12;25.92;;;10.07;;
75993;SDS011;64680;53.800;9.988;2023-12-04T08:58:38;27.40;;;9.80;;
75993;SDS011;64680;53.800;9.988;2023-12-04T09:01:03;26.73;;;8.90;;
75993;SDS011;64680;53.800;9.988;2023-12-04T09:03:30;25.27;;;8.80;;
75993;SDS011;64680;53.800;9.988;2023-12-04T09:05:59;23.77;;;9.50;;
75993;SDS011;64680;53.800;9.988;2023-12-04T09:08:24;24.83;;;9.02;;
75993;SDS011;64680;53.800;9.988;2023-12-04T09:10:53;27.42;;;9.85;;
75993;SDS011;64680;53.800;9.988;2023-12-04T09:13:18;25.15;;;9.68;;
75993;SDS011;64680;53.800;9.988;2023-12-04T09:15:44;27.90;;;10.82;;
75993;SDS011;64680;53.800;9.988;2023-12-04T09:18:09;27.33;;;10.18;;
75993;SDS011;64680;53.800;9.988;2023-12-04T09:20:35;24.70;;;9.60;;
75993;SDS011;64680;53.800;9.988;2023-12-04T09:23:01;25.80;;;9.50;;
75993;SDS011;64680;53.800;9.988;2023-12-04T09:25:26;22.33;;;9.80;;
75993;SDS011;64680;53.800;9.988;2023-12-04T09:27:52;24.92;;;9.35;;
75993;SDS011;64680;53.800;9.988;2023-12-04T09:30:18;22.65;;;10.25;;
75993;SDS011;64680;53.800;9.988;2023-12-04T09:32:43;23.92;;;10.18;;
75993;SDS011;64680;53.800;9.988;2023-12-04T09:35:10;24.20;;;10.02;;
75993;SDS011;64680;53.800;9.988;2023-12-04T09:37:35;23.42;;;9.52;;
75993;SDS011;64680;53.800;9.988;2023-12-04T09:40:11;25.35;;;9.60;;
75993;SDS011;64680;53.800;9.988;2023-12-04T09:42:37;25.67;;;10.02;;
75993;SDS011;64680;53.800;9.988;2023-12-04T09:45:04;23.73;;;9.77;;
75993;SDS011;64680;53.800;9.988;2023-12-04T09:47:32;26.63;;;10.77;;
75993;SDS011;64680;53.800;9.988;2023-12-04T09:49:59;26.40;;;10.32;;
75993;SDS011;64680;53.800;9.988;2023-12-04T09:52:26;25.15;;;9.73;;
75993;SDS011;64680;53.800;9.988;2023-12-04T09:54:52;22.52;;;9.00;;
75993;SDS011;64680;53.800;9.988;2023-12-04T09:57:18;24.52;;;10.65;;
75993;SDS011;64680;53.800;9.988;2023-12-04T09:59:44;23.73;;;9.30;;
75993;SDS011;64680;53.800;9.988;2023-12-04T10:02:10;24.77;;;9.05;;
75993;SDS011;64680;53.800;9.988;2023-12-04T10:04:36;22.15;;;9.18;;
75993;SDS011;64680;53.800;9.988;2023-12-04T10:07:02;23.65;;;8.95;;
75993;SDS011;64680;53.800;9.988;2023-12-04T10:09:29;24.65;;;9.43;;
75993;SDS011;64680;53.800;9.988;2023-12-04T10:11:58;27.67;;;9.93;;
75993;SDS011;64680;53.800;9.988;2023-12-04T10:14:24;26.30;;;10.80;;
75993;SDS011;64680;53.800;9.988;2023-12-04T10:16:50;27.85;;;10.15;;
75993;SDS011;64680;53.800;9.988;2023-12-04T10:19:21;21.90;;;8.75;;
75993;SDS011;64680;53.800;9.988;2023-12-04T10:21:51;24.70;;;8.48;;
75993;SDS011;64680;53.800;9.988;2023-12-04T10:24:26;24.08;;;9.25;;
75993;SDS011;64680;53.800;9.988;2023-12-04T10:26:57;25.08;;;9.10;;
75993;SDS011;64680;53.800;9.988;2023-12-04T10:29:23;24.58;;;10.05;;
75993;SDS011;64680;53.800;9.988;2023-12-04T10:31:50;23.55;;;9.10;;
75993;SDS011;64680;53.800;9.988;2023-12-04T10:34:17;20.65;;;8.75;;
75993;SDS011;64680;53.800;9.988;2023-12-04T10:36:44;23.60;;;9.20;;
75993;SDS011;64680;53.800;9.988;2023-12-04T10:39:11;24.02;;;9.73;;
75993;SDS011;64680;53.800;9.988;2023-12-04T10:41:38;23.70;;;8.98;;
75993;SDS011;64680;53.800;9.988;2023-12-04T10:44:04;22.40;;;8.98;;
75993;SDS011;64680;53.800;9.988;2023-12-04T10:46:29;21.35;;;8.30;;
75993;SDS011;64680;53.800;9.988;2023-12-04T10:48:56;19.50;;;8.68;;
75993;SDS011;64680;53.800;9.988;2023-12-04T10:51:23;19.52;;;8.68;;
75993;SDS011;64680;53.800;9.988;2023-12-04T10:53:49;21.20;;;8.05;;
75993;SDS011;64680;53.800;9.988;2023-12-04T10:56:17;21.05;;;8.82;;
75993;SDS011;64680;53.800;9.988;2023-12-04T10:58:50;20.52;;;10.55;;
75993;SDS011;64680;53.800;9.988;2023-12-04T11:01:18;17.77;;;8.70;;
75993;SDS011;64680;53.800;9.988;2023-12-04T11:03:47;20.95;;;8.35;;
75993;SDS011;64680;53.800;9.988;2023-12-04T11:06:14;22.17;;;9.18;;
75993;SDS011;64680;53.800;9.988;2023-12-04T11:08:43;21.08;;;8.52;;
75993;SDS011;64680;53.800;9.988;2023-12-04T11:11:15;19.27;;;9.02;;
75993;SDS011;64680;53.800;9.988;2023-12-04T11:13:54;22.70;;;10.38;;
75993;SDS011;64680;53.800;9.988;2023-12-04T11:16:34;21.70;;;8.80;;
75993;SDS011;64680;53.800;9.988;2023-12-04T11:21:45;20.73;;;8.50;;
75993;SDS011;64680;53.800;9.988;2023-12-04T11:24:12;21.50;;;9.77;;
75993;SDS011;64680;53.800;9.988;2023-12-04T11:26:39;21.67;;;9.68;;
75993;SDS011;64680;53.800;9.988;2023-12-04T11:29:05;20.20;;;8.57;;
75993;SDS011;64680;53.800;9.988;2023-12-04T11:31:33;21.25;;;8.32;;
75993;SDS011;64680;53.800;9.988;2023-12-04T11:34:03;21.65;;;8.90;;
75993;SDS011;64680;53.800;9.988;2023-12-04T11:36:29;20.30;;;8.50;;
75993;SDS011;64680;53.800;9.988;2023-12-04T11:38:55;22.33;;;9.07;;
75993;SDS011;64680;53.800;9.988;2023-12-04T11:41:24;21.67;;;9.00;;
75993;SDS011;64680;53.800;9.988;2023-12-04T11:43:50;24.27;;;9.32;;
75993;SDS011;64680;53.800;9.988;2023-12-04T11:46:24;19.67;;;8.98;;
75993;SDS011;64680;53.800;9.988;2023-12-04T11:48:54;20.98;;;9.20;;
75993;SDS011;64680;53.800;9.988;2023-12-04T11:54:07;19.83;;;8.23;;
75993;SDS011;64680;53.800;9.988;2023-12-04T11:56:33;19.58;;;9.48;;
75993;SDS011;64680;53.800;9.988;2023-12-04T11:59:06;19.92;;;9.10;;
75993;SDS011;64680;53.800;9.988;2023-12-04T12:01:35;21.13;;;9.38;;
75993;SDS011;64680;53.800;9.988;2023-12-04T12:04:04;20.83;;;8.82;;
75993;SDS011;64680;53.800;9.988;2023-12-04T12:06:33;23.35;;;9.40;;
75993;SDS011;64680;53.800;9.988;2023-12-04T12:08:58;21.65;;;8.80;;
75993;SDS011;64680;53.800;9.988;2023-12-04T12:11:24;19.50;;;7.95;;
75993;SDS011;64680;53.800;9.988;2023-12-04T12:13:52;21.00;;;8.25;;
75993;SDS011;64680;53.800;9.988;2023-12-04T12:16:21;18.73;;;8.23;;
75993;SDS011;64680;53.800;9.988;2023-12-04T12:18:46;20.35;;;8.57;;
75993;SDS011;64680;53.800;9.988;2023-12-04T12:21:12;16.90;;;8.15;;
75993;SDS011;64680;53.800;9.988;2023-12-04T12:23:38;20.73;;;9.07;;
75993;SDS011;64680;53.800;9.988;2023-12-04T12:26:04;21.25;;;8.43;;
75993;SDS011;64680;53.800;9.988;2023-12-04T12:28:30;20.20;;;8.93;;
75993;SDS011;64680;53.800;9.988;2023-12-04T12:30:56;20.42;;;9.50;;
75993;SDS011;64680;53.800;9.988;2023-12-04T12:33:21;19.48;;;8.00;;
75993;SDS011;64680;53.800;9.988;2023-12-04T12:35:48;19.17;;;7.82;;
75993;SDS011;64680;53.800;9.988;2023-12-04T12:38:14;19.48;;;7.90;;
75993;SDS011;64680;53.800;9.988;2023-12-04T12:40:40;20.40;;;8.45;;
75993;SDS011;64680;53.800;9.988;2023-12-04T12:43:06;19.95;;;8.00;;
75993;SDS011;64680;53.800;9.988;2023-12-04T12:45:39;19.15;;;7.90;;
75993;SDS011;64680;53.800;9.988;2023-12-04T12:48:15;20.38;;;8.88;;
75993;SDS011;64680;53.800;9.988;2023-12-04T12:50:48;19.98;;;7.65;;
75993;SDS011;64680;53.800;9.988;2023-12-04T12:53:14;19.33;;;8.10;;
75993;SDS011;64680;53.800;9.988;2023-12-04T12:55:40;17.30;;;7.43;;
75993;SDS011;64680;53.800;9.988;2023-12-04T12:58:07;18.17;;;8.48;;
75993;SDS011;64680;53.800;9.988;2023-12-04T13:00:34;21.95;;;9.07;;
75993;SDS011;64680;53.800;9.988;2023-12-04T13:03:00;18.25;;;8.77;;
75993;SDS011;64680;53.800;9.988;2023-12-04T13:05:26;19.50;;;8.90;;
75993;SDS011;64680;53.800;9.988;2023-12-04T13:07:52;19.02;;;7.78;;
75993;SDS011;64680;53.800;9.988;2023-12-04T13:10:18;17.50;;;7.70;;
75993;SDS011;64680;53.800;9.988;2023-12-04T13:12:43;20.83;;;8.75;;
75993;SDS011;64680;53.800;9.988;2023-12-04T13:15:09;21.83;;;8.45;;
75993;SDS011;64680;53.800;9.988;2023-12-04T13:17:35;18.50;;;8.52;;
75993;SDS011;64680;53.800;9.988;2023-12-04T13:20:01;21.85;;;8.88;;
75993;SDS011;64680;53.800;9.988;2023-12-04T13:22:29;21.10;;;8.57;;
75993;SDS011;64680;53.800;9.988;2023-12-04T13:24:55;20.75;;;9.02;;
75993;SDS011;64680;53.800;9.988;2023-12-04T13:27:20;18.50;;;7.40;;
75993;SDS011;64680;53.800;9.988;2023-12-04T13:29:46;23.55;;;9.10;;
75993;SDS011;64680;53.800;9.988;2023-12-04T13:34:40;20.77;;;9.02;;
75993;SDS011;64680;53.800;9.988;2023-12-04T13:37:07;19.65;;;8.07;;
75993;SDS011;64680;53.800;9.988;2023-12-04T13:39:33;22.85;;;8.80;;
75993;SDS011;64680;53.800;9.988;2023-12-04T13:42:12;19.98;;;9.48;;
75993;SDS011;64680;53.800;9.988;2023-12-04T13:44:57;20.95;;;9.48;;
75993;SDS011;64680;53.800;9.988;2023-12-04T13:47:23;19.88;;;8.25;;
75993;SDS011;64680;53.800;9.988;2023-12-04T13:49:48;22.35;;;8.38;;
75993;SDS011;64680;53.800;9.988;2023-12-04T13:52:14;18.83;;;8.10;;
75993;SDS011;64680;53.800;9.988;2023-12-04T13:54:39;19.60;;;8.48;;
75993;SDS011;64680;53.800;9.988;2023-12-04T13:57:13;20.02;;;8.75;;
75993;SDS011;64680;53.800;9.988;2023-12-04T13:59:53;21.65;;;8.70;;
75993;SDS011;64680;53.800;9.988;2023-12-04T14:02:22;19.10;;;8.25;;
75993;SDS011;64680;53.800;9.988;2023-12-04T14:04:47;24.25;;;9.02;;
75993;SDS011;64680;53.800;9.988;2023-12-04T14:07:13;18.27;;;8.75;;
75993;SDS011;64680;53.800;9.988;2023-12-04T14:09:41;22.67;;;9.55;;
75993;SDS011;64680;53.800;9.988;2023-12-04T14:12:07;20.77;;;8.35;;
75993;SDS011;64680;53.800;9.988;2023-12-04T14:14:33;18.63;;;7.78;;
75993;SDS011;64680;53.800;9.988;2023-12-04T14:16:59;20.38;;;8.43;;
75993;SDS011;64680;53.800;9.988;2023-12-04T14:19:28;22.35;;;8.98;;
75993;SDS011;64680;53.800;9.988;2023-12-04T14:21:54;18.75;;;8.27;;
75993;SDS011;64680;53.800;9.988;2023-12-04T14:24:19;19.63;;;7.82;;
75993;SDS011;64680;53.800;9.988;2023-12-04T14:26:46;22.00;;;9.98;;
75993;SDS011;64680;53.800;9.988;2023-12-04T14:29:12;19.67;;;8.80;;
75993;SDS011;64680;53.800;9.988;2023-12-04T14:31:38;20.85;;;8.02;;
75993;SDS011;64680;53.800;9.988;2023-12-04T14:34:05;20.65;;;8.75;;
75993;SDS011;64680;53.800;9.988;2023-12-04T14:36:31;21.50;;;9.20;;